Time;durP1;ratioP1;P1;durP2;ratioP2;P2;SDS_P1;SDS_P2;PMS_P1;PMS_P2;Temp;Humidity;BMP_temperature;BMP_pressure;BME280_temperature;BME280_humidity;BME280_pressure;Samples;Min_cycle;Max_cycle;Signal;HPM_P1;HPM_P2
2021/05/12 00:00:32;;;;;;;5.75;2.33;;;461.70;1305.60;;;;;;4989391;28;20033;-78
2021/05/12 00:02:59;;;;;;;7.13;2.28;;;461.60;1305.60;;;;;;5012477;28;20021;-78
2021/05/12 00:05:27;;;;;;;4.63;1.70;;;461.50;1331.20;;;;;;5011863;28;20022;-78
2021/05/12 00:07:53;;;;;;;5.63;2.17;;;461.50;1305.60;;;;;;5012341;28;20141;-78
2021/05/12 00:10:21;;;;;;;5.38;1.90;;;461.50;1305.60;;;;;;5012151;28;20525;-78
2021/05/12 00:12:47;;;;;;;4.43;2.55;;;461.50;1280.00;;;;;;5012349;28;20024;-78
2021/05/12 00:15:16;;;;;;;7.75;2.10;;;461.50;1280.00;;;;;;5012112;28;20109;-78
2021/05/12 00:17:44;;;;;;;4.88;2.55;;;461.50;1280.00;;;;;;5012013;28;20022;-78
2021/05/12 00:20:12;;;;;;;5.05;2.15;;;461.50;1280.00;;;;;;5011890;28;20022;-78
2021/05/12 00:23:03;;;;;;;6.25;1.60;;;461.40;1280.00;;;;;;5011624;28;20022;-78
2021/05/12 00:25:24;;;;;;;12.15;2.25;;;461.40;1305.60;;;;;;5011504;28;20060;-78
2021/05/12 00:27:50;;;;;;;6.18;2.13;;;461.40;1280.00;;;;;;5011951;28;20032;-78
2021/05/12 00:30:21;;;;;;;9.32;2.40;;;461.30;1280.00;;;;;;5012182;28;20105;-78
2021/05/12 00:32:47;;;;;;;10.45;2.65;;;461.30;1280.00;;;;;;5011753;28;20028;-77
2021/05/12 00:35:14;;;;;;;16.42;2.58;;;461.30;1254.40;;;;;;4993932;28;20105;-77
2021/05/12 00:37:40;;;;;;;21.50;2.97;;;461.30;1254.40;;;;;;4994381;28;20033;-77
2021/05/12 00:40:09;;;;;;;12.73;3.15;;;461.30;1254.40;;;;;;4993591;28;20026;-77
2021/05/12 00:42:35;;;;;;;13.32;2.95;;;461.30;1254.40;;;;;;5011847;28;20022;-78
2021/05/12 00:45:03;;;;;;;16.13;2.80;;;461.40;1228.80;;;;;;4994226;28;20029;-77
2021/05/12 00:47:31;;;;;;;28.42;4.22;;;461.40;1228.80;;;;;;5007767;28;20482;-78
2021/05/12 00:49:57;;;;;;;19.83;2.92;;;461.30;1228.80;;;;;;5002505;28;20061;-77
2021/05/12 00:52:24;;;;;;;21.67;3.08;;;461.40;1203.20;;;;;;5010501;28;20050;-78
2021/05/12 00:54:50;;;;;;;23.77;3.22;;;461.40;1203.20;;;;;;5010733;28;20030;-77
2021/05/12 00:57:16;;;;;;;16.42;2.90;;;461.40;1203.20;;;;;;5011630;28;20018;-77
2021/05/12 00:59:44;;;;;;;21.77;2.90;;;461.40;1203.20;;;;;;5011891;28;20029;-79
2021/05/12 01:02:10;;;;;;;18.42;2.97;;;461.50;1203.20;;;;;;5010170;28;20076;-79
2021/05/12 01:04:39;;;;;;;16.23;3.15;;;461.40;1203.20;;;;;;5010471;28;20030;-77
2021/05/12 01:07:05;;;;;;;17.83;3.08;;;461.40;1203.20;;;;;;5011464;28;20362;-77
2021/05/12 01:09:31;;;;;;;13.35;2.78;;;461.40;1203.20;;;;;;4996272;28;20084;-77
2021/05/12 01:11:58;;;;;;;24.25;3.47;;;461.40;1203.20;;;;;;4996791;28;20022;-77
2021/05/12 01:14:24;;;;;;;15.60;2.60;;;461.40;1203.20;;;;;;5015447;28;20032;-77
2021/05/12 01:16:51;;;;;;;12.90;3.00;;;461.40;1203.20;;;;;;5015338;28;20046;-77
2021/05/12 01:19:17;;;;;;;13.85;2.95;;;461.40;1203.20;;;;;;4997538;28;20065;-77
2021/05/12 01:21:43;;;;;;;8.73;2.35;;;461.30;1203.20;;;;;;5015273;28;20486;-78
2021/05/12 01:24:09;;;;;;;7.80;2.50;;;461.30;1203.20;;;;;;5015089;28;20053;-77
2021/05/12 01:26:36;;;;;;;6.60;2.30;;;461.40;1203.20;;;;;;5015120;28;20026;-77
2021/05/12 01:29:05;;;;;;;5.90;1.85;;;461.20;1203.20;;;;;;5015045;28;20033;-75
2021/05/12 01:31:38;;;;;;;5.38;2.00;;;461.20;1203.20;;;;;;5015005;28;20034;-77
2021/05/12 01:34:07;;;;;;;3.90;1.80;;;461.20;1203.20;;;;;;5014973;28;20424;-77
2021/05/12 01:36:34;;;;;;;14.73;2.05;;;461.20;1203.20;;;;;;4996916;28;20050;-76
2021/05/12 01:39:00;;;;;;;5.50;2.25;;;461.20;1203.20;;;;;;4997428;28;20061;-78
2021/05/12 01:41:28;;;;;;;5.68;2.55;;;461.20;1203.20;;;;;;5014469;28;20080;-77
2021/05/12 01:43:55;;;;;;;5.47;2.17;;;461.10;1203.20;;;;;;5014875;28;20018;-78
2021/05/12 01:46:21;;;;;;;5.85;2.17;;;461.10;1203.20;;;;;;4997185;28;20111;-77
2021/05/12 01:48:47;;;;;;;5.57;2.42;;;461.10;1203.20;;;;;;5004267;28;20022;-78
2021/05/12 01:51:14;;;;;;;7.90;2.58;;;461.10;1228.80;;;;;;5014516;28;20085;-77
2021/05/12 01:53:41;;;;;;;4.78;2.25;;;461.00;1228.80;;;;;;4996897;28;20132;-77
2021/05/12 01:56:08;;;;;;;5.47;1.73;;;461.00;1228.80;;;;;;5014474;28;20014;-78
2021/05/12 01:58:34;;;;;;;4.40;2.05;;;461.00;1228.80;;;;;;5014380;28;20052;-77
2021/05/12 02:00:59;;;;;;;4.88;2.00;;;461.00;1228.80;;;;;;5014242;28;20072;-77
2021/05/12 02:03:26;;;;;;;5.70;1.52;;;461.00;1228.80;;;;;;5014437;28;20474;-77
2021/05/12 02:05:53;;;;;;;2.90;1.58;;;460.90;1228.80;;;;;;4996673;28;20532;-77
2021/05/12 02:08:21;;;;;;;2.15;1.35;;;461.00;1228.80;;;;;;4996645;28;20492;-77
2021/05/12 02:10:49;;;;;;;7.82;2.00;;;460.90;1228.80;;;;;;4996801;28;20034;-78
2021/05/12 02:13:15;;;;;;;6.22;1.55;;;460.80;1228.80;;;;;;5014202;28;20018;-78
2021/05/12 02:15:43;;;;;;;5.15;1.70;;;460.80;1228.80;;;;;;5013771;28;20034;-78
2021/05/12 02:18:09;;;;;;;6.97;2.25;;;460.80;1228.80;;;;;;5013056;28;20383;-78
2021/05/12 02:20:36;;;;;;;6.03;1.90;;;460.80;1228.80;;;;;;4996226;28;20125;-77
2021/05/12 02:23:04;;;;;;;5.20;1.90;;;460.80;1228.80;;;;;;5012622;28;20481;-78
2021/05/12 02:25:30;;;;;;;8.07;1.70;;;460.80;1228.80;;;;;;5013479;28;20462;-78
2021/05/12 02:27:56;;;;;;;6.07;1.73;;;436.10;1203.20;;;;;;4996292;28;20074;-77
2021/05/12 02:30:23;;;;;;;8.63;2.05;;;436.10;1203.20;;;;;;4991676;28;20034;-77
2021/05/12 02:32:49;;;;;;;6.03;1.88;;;436.10;1228.80;;;;;;4996324;28;20038;-77
2021/05/12 02:35:16;;;;;;;4.60;2.45;;;460.80;1228.80;;;;;;4998578;28;20037;-78
2021/05/12 02:37:43;;;;;;;7.28;1.85;;;436.10;1177.60;;;;;;5033702;28;20033;-77
2021/05/12 02:40:10;;;;;;;7.63;2.00;;;436.10;1177.60;;;;;;5033159;28;20486;-77
2021/05/12 02:42:37;;;;;;;2.40;1.38;;;460.80;1203.20;;;;;;5015762;28;20393;-77
2021/05/12 02:45:05;;;;;;;9.15;1.90;;;460.80;1203.20;;;;;;5033529;28;20032;-77
2021/05/12 02:47:31;;;;;;;7.72;2.15;;;460.80;1203.20;;;;;;5030130;28;20018;-77
2021/05/12 02:49:56;;;;;;;5.53;1.75;;;436.10;1177.60;;;;;;5007720;28;20049;-77
2021/05/12 02:52:22;;;;;;;5.30;1.65;;;436.10;1152.00;;;;;;5029104;28;20025;-77
2021/05/12 02:54:48;;;;;;;3.85;1.63;;;460.80;1177.60;;;;;;5023629;28;20033;-77
2021/05/12 02:57:14;;;;;;;9.32;2.20;;;436.10;1152.00;;;;;;5015260;28;20026;-77
2021/05/12 02:59:40;;;;;;;10.45;2.45;;;436.10;1152.00;;;;;;5015517;28;20022;-77
2021/05/12 03:02:06;;;;;;;7.88;1.83;;;436.10;1152.00;;;;;;5015076;28;20037;-77
2021/05/12 03:04:32;;;;;;;5.50;1.40;;;436.10;1152.00;;;;;;5032064;28;20017;-76
2021/05/12 03:06:57;;;;;;;6.20;1.95;;;460.80;1152.00;;;;;;5032369;28;20030;-77
2021/05/12 03:09:25;;;;;;;4.50;1.60;;;460.80;1152.00;;;;;;5032312;28;20037;-77
2021/05/12 03:11:51;;;;;;;18.98;2.40;;;460.80;1177.60;;;;;;5014949;28;20159;-76
2021/05/12 03:14:18;;;;;;;5.07;1.63;;;436.10;1152.00;;;;;;5030486;28;20013;-77
2021/05/12 03:16:43;;;;;;;5.63;1.75;;;436.10;1126.40;;;;;;5015037;28;20037;-77
2021/05/12 03:19:09;;;;;;;8.32;2.55;;;460.80;1177.60;;;;;;5032356;28;20021;-76
2021/05/12 03:21:35;;;;;;;5.55;2.10;;;460.80;1152.00;;;;;;5015072;28;20092;-77
2021/05/12 03:24:02;;;;;;;9.73;1.88;;;460.90;1152.00;;;;;;5022193;28;20036;-77
2021/05/12 03:26:28;;;;;;;4.90;2.33;;;460.90;1152.00;;;;;;5031813;28;20474;-77
2021/05/12 03:28:54;;;;;;;7.13;1.90;;;460.90;1152.00;;;;;;5022127;28;20034;-76
2021/05/12 03:31:20;;;;;;;11.80;2.13;;;460.80;1152.00;;;;;;5032600;28;20030;-76
2021/05/12 03:33:46;;;;;;;4.97;1.77;;;460.80;1177.60;;;;;;5032075;28;20108;-77
2021/05/12 03:36:12;;;;;;;5.47;1.77;;;436.10;1126.40;;;;;;5032049;28;20100;-77
2021/05/12 03:38:38;;;;;;;4.22;1.83;;;436.10;1126.40;;;;;;5032340;28;20068;-77
2021/05/12 03:41:07;;;;;;;5.90;1.92;;;436.00;1152.00;;;;;;5032151;28;20063;-77
2021/05/12 03:43:34;;;;;;;3.35;1.38;;;436.00;1152.00;;;;;;5014485;28;20116;-77
2021/05/12 03:46:01;;;;;;;6.88;1.90;;;436.10;1152.00;;;;;;5024835;28;20025;-76
2021/05/12 03:48:27;;;;;;;8.27;2.10;;;435.90;1152.00;;;;;;4998338;28;20121;-77
2021/05/12 03:50:53;;;;;;;4.50;1.90;;;435.90;1177.60;;;;;;5031805;28;20104;-76
2021/05/12 03:53:19;;;;;;;11.15;1.95;;;435.90;1177.60;;;;;;5032393;28;20052;-76
2021/05/12 03:55:45;;;;;;;4.80;1.67;;;435.80;1177.60;;;;;;5018062;28;20442;-78
2021/05/12 03:58:11;;;;;;;7.38;1.83;;;435.90;1177.60;;;;;;5004938;28;20034;-77
2021/05/12 04:00:37;;;;;;;2.53;1.42;;;435.90;1177.60;;;;;;5027666;28;20037;-77
2021/05/12 04:03:02;;;;;;;4.68;1.40;;;435.90;1177.60;;;;;;5032034;28;20480;-77
2021/05/12 04:05:28;;;;;;;5.72;1.60;;;435.90;1177.60;;;;;;5000911;28;20029;-76
2021/05/12 04:07:54;;;;;;;6.72;1.70;;;435.90;1177.60;;;;;;5009902;28;20505;-77
2021/05/12 04:10:20;;;;;;;5.35;1.65;;;436.00;1177.60;;;;;;5024196;28;20485;-78
2021/05/12 04:12:47;;;;;;;4.20;1.88;;;436.00;1152.00;;;;;;5027988;28;20382;-77
2021/05/12 04:15:13;;;;;;;7.50;2.78;;;436.00;1177.60;;;;;;5004509;28;20193;-77
2021/05/12 04:17:39;;;;;;;3.20;1.60;;;436.00;1152.00;;;;;;5031596;28;20428;-77
2021/05/12 04:20:10;;;;;;;5.35;1.70;;;436.00;1152.00;;;;;;5031845;28;20021;-77
2021/05/12 04:22:36;;;;;;;5.57;2.33;;;436.00;1152.00;;;;;;5013896;28;20175;-77
2021/05/12 04:25:03;;;;;;;5.07;1.63;;;436.00;1152.00;;;;;;5031676;28;20018;-78
2021/05/12 04:27:29;;;;;;;6.40;1.83;;;435.90;1152.00;;;;;;5031781;28;20025;-77
2021/05/12 04:29:54;;;;;;;5.93;1.80;;;435.90;1177.60;;;;;;5013366;28;20095;-77
2021/05/12 04:32:20;;;;;;;6.72;1.30;;;435.90;1152.00;;;;;;5014215;28;20053;-78
2021/05/12 04:34:46;;;;;;;8.55;1.98;;;435.90;1177.60;;;;;;5028413;28;20025;-77
2021/05/12 04:37:12;;;;;;;2.85;1.50;;;435.90;1177.60;;;;;;5003307;28;20057;-77
2021/05/12 04:39:38;;;;;;;4.40;1.52;;;436.00;1152.00;;;;;;5013482;28;20393;-78
2021/05/12 04:42:04;;;;;;;16.83;1.95;;;436.10;1152.00;;;;;;5031722;28;20030;-78
2021/05/12 04:44:29;;;;;;;6.30;1.90;;;436.10;1152.00;;;;;;5013677;28;20028;-78
2021/05/12 04:46:56;;;;;;;4.90;1.88;;;460.80;1177.60;;;;;;5016676;28;20037;-78
2021/05/12 04:49:22;;;;;;;2.83;1.70;;;460.80;1177.60;;;;;;5000268;28;20026;-77
2021/05/12 04:51:48;;;;;;;2.85;1.65;;;460.90;1177.60;;;;;;5028850;28;20500;-77
2021/05/12 04:54:14;;;;;;;6.85;1.73;;;460.90;1177.60;;;;;;5003974;28;20108;-78
2021/05/12 04:56:41;;;;;;;5.50;1.95;;;461.10;1152.00;;;;;;5017455;28;20025;-77
2021/05/12 04:59:06;;;;;;;2.08;1.48;;;461.10;1177.60;;;;;;5014342;28;20050;-77
2021/05/12 05:01:32;;;;;;;3.95;1.50;;;461.10;1177.60;;;;;;5017360;28;20084;-77
2021/05/12 05:03:59;;;;;;;7.35;1.85;;;461.10;1152.00;;;;;;5035199;28;20040;-77
2021/05/12 05:06:25;;;;;;;4.97;1.35;;;461.20;1152.00;;;;;;5017201;28;20041;-77
2021/05/12 05:08:50;;;;;;;7.05;1.95;;;461.30;1152.00;;;;;;5034703;28;20183;-76
2021/05/12 05:11:16;;;;;;;6.57;1.92;;;461.30;1126.40;;;;;;5034814;28;20063;-81
2021/05/12 05:13:43;;;;;;;2.30;1.33;;;461.40;1126.40;;;;;;5017340;28;20397;-77
2021/05/12 05:16:09;;;;;;;15.93;2.90;;;461.60;1100.80;;;;;;5016278;28;20029;-78
2021/05/12 05:18:36;;;;;;;5.05;1.52;;;486.40;1126.40;;;;;;5034331;28;20022;-76
2021/05/12 05:21:05;;;;;;;9.88;2.78;;;486.40;1126.40;;;;;;5034574;28;20022;-79
2021/05/12 05:23:34;;;;;;;7.25;1.70;;;486.40;1126.40;;;;;;5016580;28;20044;-77
2021/05/12 05:26:00;;;;;;;4.88;1.63;;;486.50;1100.80;;;;;;5016600;28;20472;-77
2021/05/12 05:28:25;;;;;;;7.28;1.60;;;486.70;1100.80;;;;;;5009963;28;20022;-76
2021/05/12 05:30:51;;;;;;;6.82;1.95;;;486.70;1100.80;;;;;;5013982;28;20516;-77
2021/05/12 05:33:17;;;;;;;4.05;1.73;;;486.90;1100.80;;;;;;5029727;28;20049;-76
2021/05/12 05:35:43;;;;;;;5.85;1.98;;;486.80;1075.20;;;;;;5013160;28;20132;-77
2021/05/12 05:38:08;;;;;;;12.95;2.28;;;486.90;1100.80;;;;;;5015171;28;20132;-77
2021/05/12 05:40:34;;;;;;;14.05;4.90;;;487.00;1126.40;;;;;;5016557;28;20120;-78
2021/05/12 05:43:03;;;;;;;5.38;2.42;;;487.00;1075.20;;;;;;5030307;28;20021;-76
2021/05/12 05:45:29;;;;;;;5.57;1.80;;;487.00;1100.80;;;;;;5033041;28;20045;-76
2021/05/12 05:47:55;;;;;;;4.85;2.17;;;487.00;1100.80;;;;;;5031464;28;20025;-77
2021/05/12 05:50:22;;;;;;;3.40;1.83;;;487.10;1075.20;;;;;;5031596;28;20097;-76
2021/05/12 05:52:48;;;;;;;4.10;1.83;;;487.30;1100.80;;;;;;5015283;28;20426;-79
2021/05/12 05:55:14;;;;;;;7.50;2.47;;;512.00;1100.80;;;;;;5033358;28;20030;-77
2021/05/12 05:57:41;;;;;;;7.93;1.95;;;512.00;1075.20;;;;;;5033426;28;20466;-77
2021/05/12 06:00:08;;;;;;;11.15;2.22;;;512.10;1075.20;;;;;;5033310;28;20021;-76
2021/05/12 06:02:35;;;;;;;8.50;2.17;;;512.30;1075.20;;;;;;5032863;28;20091;-81
2021/05/12 06:05:04;;;;;;;6.50;2.00;;;512.40;1024.00;;;;;;5032475;28;20020;-77
2021/05/12 06:07:30;;;;;;;7.32;2.55;;;512.50;1024.00;;;;;;5031202;28;20030;-78
2021/05/12 06:09:55;;;;;;;9.57;2.55;;;512.40;1049.60;;;;;;5031843;28;20090;-76
2021/05/12 06:12:21;;;;;;;9.13;3.05;;;512.50;1024.00;;;;;;5014437;28;20029;-76
2021/05/12 06:14:47;;;;;;;7.60;1.90;;;512.60;1024.00;;;;;;5032626;28;20038;-77
2021/05/12 06:17:13;;;;;;;9.52;2.33;;;512.40;1024.00;;;;;;5013679;28;20044;-76
2021/05/12 06:19:39;;;;;;;9.63;2.53;;;512.30;1049.60;;;;;;5033204;28;20059;-78
2021/05/12 06:22:05;;;;;;;10.20;1.90;;;512.20;1024.00;;;;;;5015331;28;20489;-75
2021/05/12 06:24:30;;;;;;;6.63;2.10;;;512.10;1024.00;;;;;;5033580;28;20021;-78
2021/05/12 06:26:57;;;;;;;6.25;2.33;;;512.30;1024.00;;;;;;5033524;28;20048;-78
2021/05/12 06:29:23;;;;;;;7.43;2.10;;;512.40;1075.20;;;;;;5015684;28;20029;-79
2021/05/12 06:31:48;;;;;;;6.30;2.10;;;512.40;1024.00;;;;;;5033588;28;20048;-77
2021/05/12 06:34:14;;;;;;;6.55;2.00;;;512.20;1075.20;;;;;;5032749;28;20424;-82
2021/05/12 06:36:40;;;;;;;4.90;2.20;;;512.30;1049.60;;;;;;5033397;28;20065;-77
2021/05/12 06:39:06;;;;;;;5.20;2.08;;;512.20;1049.60;;;;;;5033334;28;20113;-76
2021/05/12 06:41:33;;;;;;;9.52;2.55;;;512.40;1049.60;;;;;;5033403;28;20029;-78
2021/05/12 06:43:59;;;;;;;9.43;2.35;;;512.60;1049.60;;;;;;5012325;28;20026;-76
2021/05/12 06:46:26;;;;;;;8.93;1.92;;;512.70;1024.00;;;;;;5033533;28;20056;-76
2021/05/12 06:48:52;;;;;;;3.38;2.08;;;512.90;1049.60;;;;;;5004256;28;20501;-75
2021/05/12 06:51:20;;;;;;;7.07;2.58;;;537.60;1049.60;;;;;;5032974;28;20067;-76
2021/05/12 06:53:46;;;;;;;8.77;2.10;;;537.90;1024.00;;;;;;5009598;28;20377;-77
2021/05/12 06:56:11;;;;;;;4.97;2.20;;;538.20;1024.00;;;;;;5022732;28;20033;-76
2021/05/12 06:58:41;;;;;;;12.70;2.25;;;538.20;1024.00;;;;;;5033316;28;20109;-77
2021/05/12 07:01:08;;;;;;;12.57;2.28;;;538.30;1049.60;;;;;;5032829;28;20017;-77
2021/05/12 07:03:34;;;;;;;4.05;1.88;;;538.20;998.40;;;;;;5015445;28;20026;-78
2021/05/12 07:06:01;;;;;;;12.68;2.35;;;538.30;1024.00;;;;;;5018700;28;20037;-77
2021/05/12 07:08:27;;;;;;;6.63;2.17;;;538.30;998.40;;;;;;5032597;28;20022;-77
2021/05/12 07:10:53;;;;;;;10.27;2.15;;;538.30;1049.60;;;;;;5032213;28;20091;-77
2021/05/12 07:13:18;;;;;;;10.02;2.00;;;538.10;1024.00;;;;;;5014804;28;20489;-77
2021/05/12 07:15:44;;;;;;;4.47;1.73;;;538.10;1024.00;;;;;;5032188;28;20075;-77
2021/05/12 07:18:10;;;;;;;9.57;2.53;;;538.10;998.40;;;;;;5014550;28;20435;-77
2021/05/12 07:20:36;;;;;;;4.80;1.58;;;538.10;998.40;;;;;;5015028;28;20030;-77
2021/05/12 07:23:09;;;;;;;5.72;1.95;;;538.10;1024.00;;;;;;5014552;28;20022;-77
2021/05/12 07:25:36;;;;;;;6.20;2.28;;;538.10;998.40;;;;;;5032063;28;20021;-77
2021/05/12 07:28:03;;;;;;;6.75;2.17;;;538.10;1024.00;;;;;;5014509;28;20108;-78
2021/05/12 07:30:29;;;;;;;5.00;2.00;;;538.20;1024.00;;;;;;5006948;28;20041;-77
2021/05/12 07:32:55;;;;;;;7.45;2.00;;;538.30;1049.60;;;;;;5032145;28;20021;-76
2021/05/12 07:35:22;;;;;;;7.75;2.15;;;538.30;998.40;;;;;;5014744;28;20041;-75
2021/05/12 07:37:47;;;;;;;3.92;1.80;;;538.30;998.40;;;;;;5031956;28;20026;-75
2021/05/12 07:40:13;;;;;;;8.43;1.75;;;538.50;1024.00;;;;;;5031809;28;20102;-75
2021/05/12 07:42:41;;;;;;;7.32;2.25;;;538.40;998.40;;;;;;5013958;28;20045;-75
2021/05/12 07:45:08;;;;;;;3.63;1.80;;;538.50;972.80;;;;;;5031637;28;20548;-76
2021/05/12 07:47:33;;;;;;;4.22;2.40;;;538.50;1049.60;;;;;;5014081;28;20029;-76
2021/05/12 07:49:59;;;;;;;5.60;2.40;;;538.50;998.40;;;;;;5032010;28;20388;-76
2021/05/12 07:52:25;;;;;;;5.75;2.10;;;538.50;1024.00;;;;;;5013623;28;20037;-76
2021/05/12 07:54:52;;;;;;;7.55;2.60;;;538.40;998.40;;;;;;5030422;28;20041;-76
2021/05/12 07:57:18;;;;;;;5.43;1.83;;;538.50;1024.00;;;;;;5013695;28;20469;-77
2021/05/12 07:59:44;;;;;;;5.20;2.22;;;538.50;1024.00;;;;;;5031521;28;20083;-78
2021/05/12 08:02:09;;;;;;;6.30;2.30;;;538.50;1049.60;;;;;;5013628;28;20026;-77
2021/05/12 08:04:35;;;;;;;7.00;2.33;;;538.50;1024.00;;;;;;5031188;28;20036;-77
2021/05/12 08:07:01;;;;;;;8.57;2.38;;;563.20;1049.60;;;;;;5031554;28;20040;-77
2021/05/12 08:09:27;;;;;;;4.80;2.25;;;563.20;1049.60;;;;;;5031056;28;20068;-77
2021/05/12 08:11:54;;;;;;;6.55;2.22;;;538.50;1049.60;;;;;;5031437;28;20158;-76
2021/05/12 08:14:20;;;;;;;7.28;2.42;;;538.50;1049.60;;;;;;5031626;28;20048;-76
2021/05/12 08:16:46;;;;;;;5.43;2.15;;;538.50;1049.60;;;;;;5031145;28;20061;-77
2021/05/12 08:19:15;;;;;;;6.00;2.60;;;538.50;1024.00;;;;;;5031251;28;20092;-77
2021/05/12 08:21:42;;;;;;;8.55;2.17;;;538.50;1075.20;;;;;;5012639;28;20025;-78
2021/05/12 08:24:08;;;;;;;6.80;2.33;;;538.40;1049.60;;;;;;5012641;28;20033;-77
2021/05/12 08:26:34;;;;;;;9.45;3.15;;;538.50;1075.20;;;;;;5012668;28;20425;-76
2021/05/12 08:29:04;;;;;;;9.82;2.63;;;538.50;1100.80;;;;;;5031045;28;20088;-79
2021/05/12 08:31:31;;;;;;;10.30;2.97;;;538.50;1075.20;;;;;;5012979;28;20041;-78
2021/05/12 08:33:56;;;;;;;6.80;2.03;;;538.50;1075.20;;;;;;5012985;28;20025;-77
2021/05/12 08:36:22;;;;;;;7.05;2.50;;;563.30;1126.40;;;;;;5029880;28;20087;-77
2021/05/12 08:38:48;;;;;;;7.88;3.05;;;538.50;1075.20;;;;;;5030677;28;20025;-77
2021/05/12 08:41:15;;;;;;;10.10;2.55;;;563.50;1075.20;;;;;;5012899;28;20129;-76
2021/05/12 08:43:42;;;;;;;7.53;2.97;;;563.80;1100.80;;;;;;5030433;28;20021;-78
2021/05/12 08:46:10;;;;;;;8.55;2.40;;;564.00;1075.20;;;;;;5013274;28;20358;-77
2021/05/12 08:48:40;;;;;;;7.90;2.50;;;564.00;1075.20;;;;;;5028665;28;20473;-74
2021/05/12 08:51:08;;;;;;;6.47;2.83;;;564.00;1100.80;;;;;;5030572;28;20484;-74
2021/05/12 08:53:34;;;;;;;13.25;3.17;;;564.00;1100.80;;;;;;5030546;28;20013;-74
2021/05/12 08:56:00;;;;;;;11.13;3.20;;;564.10;1100.80;;;;;;5029342;28;20022;-74
2021/05/12 08:58:26;;;;;;;8.57;3.13;;;564.10;1100.80;;;;;;5030834;28;20022;-74
2021/05/12 09:00:54;;;;;;;18.83;7.97;;;564.10;1100.80;;;;;;5012724;28;20026;-74
2021/05/12 09:03:20;;;;;;;6.65;2.75;;;564.00;1152.00;;;;;;5030781;28;20025;-74
2021/05/12 09:05:47;;;;;;;4.95;2.55;;;564.00;1126.40;;;;;;5030581;28;20026;-74
2021/05/12 09:08:14;;;;;;;8.75;3.05;;;564.00;1100.80;;;;;;5031165;28;20034;-75
2021/05/12 09:10:40;;;;;;;7.90;2.80;;;564.00;1126.40;;;;;;5028534;28;20076;-75
2021/05/12 09:13:06;;;;;;;8.07;2.72;;;564.10;1152.00;;;;;;5030329;28;20041;-75
2021/05/12 09:15:32;;;;;;;5.05;2.83;;;588.90;1126.40;;;;;;5030858;28;20060;-75
2021/05/12 09:18:03;;;;;;;12.13;3.00;;;589.00;1152.00;;;;;;5012896;28;20366;-74
2021/05/12 09:20:31;;;;;;;4.15;2.45;;;589.10;1100.80;;;;;;5013139;28;20017;-74
2021/05/12 09:23:00;;;;;;;17.45;3.13;;;589.10;1126.40;;;;;;5030684;28;20022;-76
2021/05/12 09:25:29;;;;;;;8.05;3.25;;;589.20;1177.60;;;;;;5030902;28;20458;-76
2021/05/12 09:28:29;;;;;;;6.40;2.80;;;589.60;1126.40;;;;;;5013155;28;20584;-76
2021/05/12 09:31:09;;;;;;;6.97;2.60;;;614.70;1075.20;;;;;;4967608;28;20054;-76
2021/05/12 09:33:38;;;;;;;6.80;2.80;;;615.00;1049.60;;;;;;4972364;28;20039;-75
2021/05/12 09:36:06;;;;;;;6.05;2.78;;;615.10;1075.20;;;;;;4971983;28;20585;-75
2021/05/12 09:38:34;;;;;;;9.00;2.75;;;615.10;1024.00;;;;;;4972328;28;20034;-74
2021/05/12 09:41:13;;;;;;;11.30;2.45;;;615.00;1049.60;;;;;;4972589;28;20030;-76
2021/05/12 09:43:49;;;;;;;8.02;2.60;;;614.90;1049.60;;;;;;4968332;28;20073;-75
2021/05/12 09:46:23;;;;;;;12.63;2.83;;;614.90;1049.60;;;;;;4972157;28;20039;-76
2021/05/12 09:49:01;;;;;;;6.72;2.33;;;614.90;1049.60;;;;;;4956417;28;20059;-76
2021/05/12 09:51:28;;;;;;;7.20;2.72;;;615.10;1075.20;;;;;;4970887;28;20049;-75
2021/05/12 09:54:17;;;;;;;9.48;3.38;;;640.00;1024.00;;;;;;4968245;28;20023;-75
2021/05/12 09:56:52;;;;;;;9.15;3.67;;;640.40;998.40;;;;;;4968998;28;20026;-75
2021/05/12 09:59:25;;;;;;;10.07;3.50;;;640.10;1024.00;;;;;;4970622;28;20037;-74
2021/05/12 10:01:54;;;;;;;8.77;3.38;;;640.50;1024.00;;;;;;4971379;28;20026;-76
2021/05/12 10:04:42;;;;;;;6.47;2.85;;;640.80;972.80;;;;;;4972258;28;20396;-76
2021/05/12 10:07:15;;;;;;;5.75;2.85;;;640.60;1024.00;;;;;;5016997;28;20037;-76
2021/05/12 10:09:42;;;;;;;7.28;2.75;;;640.70;972.80;;;;;;5013973;28;20354;-76
2021/05/12 10:12:12;;;;;;;11.90;2.80;;;640.90;1024.00;;;;;;5033438;28;20018;-75
2021/05/12 10:14:41;;;;;;;7.97;2.50;;;640.90;998.40;;;;;;5033321;28;20018;-76
2021/05/12 10:17:10;;;;;;;9.57;3.05;;;640.70;998.40;;;;;;5033545;28;20026;-76
2021/05/12 10:19:37;;;;;;;6.97;2.92;;;640.50;998.40;;;;;;5033508;28;20024;-76
2021/05/12 10:22:04;;;;;;;9.60;3.03;;;640.30;1049.60;;;;;;5033022;28;20071;-77
2021/05/12 10:24:32;;;;;;;9.43;3.55;;;640.30;1049.60;;;;;;5033061;28;20123;-76
2021/05/12 10:27:01;;;;;;;7.50;3.42;;;640.30;1100.80;;;;;;5033522;28;20041;-76
2021/05/12 10:29:27;;;;;;;11.63;3.28;;;640.30;1075.20;;;;;;5033154;28;20036;-75
2021/05/12 10:31:53;;;;;;;9.63;3.65;;;640.30;1100.80;;;;;;5029837;28;20151;-76
2021/05/12 10:34:35;;;;;;;7.90;2.80;;;640.40;1075.20;;;;;;5033118;28;20467;-76
2021/05/12 10:37:22;;;;;;;9.80;3.55;;;640.40;1075.20;;;;;;5031101;28;20045;-76
2021/05/12 10:39:52;;;;;;;;;;;640.20;1049.60;;;;;;5032435;28;20026;-75
2021/05/12 10:43:00;;;;;;;7.43;2.85;;;640.20;1100.80;;;;;;5030666;28;19909;-75
2021/05/12 10:45:33;;;;;;;10.50;3.70;;;640.00;1075.20;;;;;;5015143;28;20022;-75
2021/05/12 10:47:59;;;;;;;4.97;2.70;;;640.00;1075.20;;;;;;5031223;28;20461;-75
2021/05/12 10:50:48;;;;;;;4.90;2.80;;;640.00;1100.80;;;;;;5032749;28;20357;-76
2021/05/12 10:53:25;;;;;;;8.52;2.67;;;640.00;1075.20;;;;;;5029944;28;20025;-76
2021/05/12 10:55:57;;;;;;;9.60;3.78;;;640.20;1075.20;;;;;;5032513;28;20093;-75
2021/05/12 10:58:24;;;;;;;7.32;3.17;;;640.70;1049.60;;;;;;5032043;28;20068;-76
2021/05/12 11:01:05;;;;;;;5.72;2.67;;;665.60;1049.60;;;;;;5015166;28;20017;-76
2021/05/12 11:03:54;;;;;;;7.70;2.65;;;665.70;1049.60;;;;;;5032099;28;20523;-75
2021/05/12 11:06:45;;;;;;;5.57;2.95;;;665.70;1075.20;;;;;;4969393;28;20035;-76
2021/05/12 11:09:14;;;;;;;7.40;3.55;;;665.60;1100.80;;;;;;4963633;28;20037;-75
2021/05/12 11:11:46;;;;;;;6.88;3.05;;;640.80;1126.40;;;;;;4960310;28;20593;-75
2021/05/12 11:14:29;;;;;;;8.60;3.10;;;640.70;1126.40;;;;;;4965955;28;20027;-74
2021/05/12 11:17:14;;;;;;;13.90;3.33;;;640.50;1126.40;;;;;;4959187;28;20047;-74
2021/05/12 11:19:47;;;;;;;8.50;3.30;;;640.20;1177.60;;;;;;4961661;28;20019;-77
2021/05/12 11:25:15;;;;;;;8.40;3.85;;;640.10;1177.60;;;;;;4965769;28;20051;-75
2021/05/12 11:33:24;;;;;;;5.70;3.15;;;640.10;1177.60;;;;;;4957830;28;20061;-75
2021/05/12 11:35:56;;;;;;;8.75;3.65;;;640.00;1203.20;;;;;;4941047;29;20455;-75
2021/05/12 11:38:22;;;;;;;10.50;2.95;;;640.00;1203.20;;;;;;4956182;28;20030;-75
2021/05/12 11:41:08;;;;;;;11.65;3.10;;;615.20;1228.80;;;;;;4951220;28;20044;-75
2021/05/12 11:43:43;;;;;;;10.45;3.40;;;615.20;1228.80;;;;;;4974588;28;20042;-79
2021/05/12 11:46:32;;;;;;;9.38;3.33;;;615.30;1228.80;;;;;;4990658;28;20033;-76
2021/05/12 11:49:06;;;;;;;8.15;3.05;;;640.10;1228.80;;;;;;4990912;28;20490;-76
2021/05/12 11:51:48;;;;;;;7.30;3.00;;;640.20;1177.60;;;;;;4990824;28;20038;-76
2021/05/12 11:54:20;;;;;;;7.03;3.03;;;640.70;1126.40;;;;;;4997912;28;20030;-76
2021/05/12 11:56:49;;;;;;;6.03;2.53;;;640.90;1126.40;;;;;;4990632;28;20104;-76
2021/05/12 11:59:19;;;;;;;13.15;2.58;;;640.80;1203.20;;;;;;4990614;28;20038;-76
2021/05/12 12:01:47;;;;;;;6.75;3.30;;;640.80;1152.00;;;;;;4974119;28;20154;-77
2021/05/12 12:04:21;;;;;;;5.70;2.75;;;640.90;1126.40;;;;;;4990574;28;20038;-76
2021/05/12 12:06:48;;;;;;;12.52;2.60;;;640.80;1152.00;;;;;;5002727;28;20029;-76
2021/05/12 12:09:15;;;;;;;7.07;2.60;;;640.70;1177.60;;;;;;5032118;28;20781;-79
2021/05/12 12:11:43;;;;;;;7.13;2.53;;;640.80;1152.00;;;;;;5031775;28;20041;-80
2021/05/12 12:14:09;;;;;;;7.60;2.35;;;640.80;1152.00;;;;;;5031867;28;20457;-77
2021/05/12 12:16:37;;;;;;;8.45;2.50;;;640.80;1152.00;;;;;;5024677;28;20033;-78
2021/05/12 12:19:11;;;;;;;10.88;2.75;;;640.70;1126.40;;;;;;5025451;28;20465;-77
2021/05/12 12:21:36;;;;;;;6.70;2.22;;;640.60;1152.00;;;;;;5013822;28;20022;-77
2021/05/12 12:24:13;;;;;;;4.90;2.15;;;640.50;1177.60;;;;;;5031273;28;20092;-77
2021/05/12 12:26:42;;;;;;;6.55;2.20;;;640.40;1177.60;;;;;;5028707;28;20036;-76
2021/05/12 12:29:09;;;;;;;5.07;2.58;;;640.30;1177.60;;;;;;5013470;28;20029;-78